createdAt,value
2019-03-30T00:02:09.549Z,8.30
2019-03-30T00:04:43.642Z,8.36
2019-03-30T00:07:17.591Z,8.30
2019-03-30T00:09:51.606Z,8.29
2019-03-30T00:12:25.072Z,8.34
2019-03-30T00:14:59.182Z,8.36
2019-03-30T00:17:33.191Z,8.28
2019-03-30T00:20:07.625Z,8.24
2019-03-30T00:22:40.905Z,8.25
2019-03-30T00:25:15.848Z,8.21
2019-03-30T00:27:49.528Z,8.22
2019-03-30T00:30:22.937Z,8.17
2019-03-30T00:32:56.676Z,8.11
2019-03-30T00:35:30.029Z,8.11
2019-03-30T00:38:03.543Z,8.15
2019-03-30T00:40:37.868Z,8.15
2019-03-30T00:43:12.340Z,8.06
2019-03-30T00:45:45.799Z,7.99
2019-03-30T00:48:20.126Z,7.94
2019-03-30T00:50:53.878Z,7.95
2019-03-30T00:53:26.757Z,7.91
2019-03-30T00:56:00.397Z,7.88
2019-03-30T00:58:34.595Z,7.89
2019-03-30T01:01:08.735Z,8.00
2019-03-30T01:03:43.074Z,8.01
2019-03-30T01:06:17.505Z,7.87
2019-03-30T01:08:51.825Z,7.70
2019-03-30T01:11:25.346Z,7.65
2019-03-30T01:13:58.792Z,7.62
2019-03-30T01:16:32.721Z,7.55
2019-03-30T01:19:06.350Z,7.49
2019-03-30T01:21:40.195Z,7.44
2019-03-30T01:24:14.207Z,7.39
2019-03-30T01:26:48.224Z,7.34
2019-03-30T01:29:21.916Z,7.27
2019-03-30T01:31:55.856Z,7.24
2019-03-30T01:34:30.621Z,7.27
2019-03-30T01:37:04.543Z,7.21
2019-03-30T01:39:38.199Z,7.16
2019-03-30T01:42:12.313Z,7.17
2019-03-30T01:44:46.372Z,7.21
2019-03-30T01:47:20.194Z,7.24
2019-03-30T01:49:53.292Z,7.23
2019-03-30T01:52:27.083Z,7.22
2019-03-30T01:55:00.507Z,7.22
2019-03-30T01:57:34.418Z,7.22
2019-03-30T02:00:10.727Z,7.20
2019-03-30T02:02:45.336Z,7.21
2019-03-30T02:05:19.433Z,7.19
2019-03-30T02:07:53.022Z,7.14
2019-03-30T02:10:43.724Z,7.07
2019-03-30T02:13:17.661Z,7.00
2019-03-30T02:15:50.735Z,6.92
2019-03-30T02:18:24.633Z,6.84
2019-03-30T02:20:58.461Z,6.77
2019-03-30T02:23:32.455Z,6.78
2019-03-30T02:26:06.731Z,6.82
2019-03-30T02:28:40.600Z,6.77
2019-03-30T02:31:14.529Z,6.83
2019-03-30T02:33:48.398Z,6.92
2019-03-30T02:36:21.662Z,6.92
2019-03-30T02:38:54.847Z,6.91
2019-03-30T02:41:28.379Z,6.92
2019-03-30T02:44:02.051Z,6.95
2019-03-30T02:46:36.004Z,6.91
2019-03-30T02:49:10.006Z,6.85
2019-03-30T02:51:43.511Z,6.82
2019-03-30T02:54:16.606Z,6.83
2019-03-30T02:56:50.603Z,6.81
2019-03-30T02:59:24.610Z,6.82
2019-03-30T03:01:58.503Z,6.79
2019-03-30T03:04:32.050Z,6.84
2019-03-30T03:07:06.276Z,6.76
2019-03-30T03:09:40.782Z,6.69
2019-03-30T03:12:13.847Z,6.65
2019-03-30T03:14:47.719Z,6.48
2019-03-30T13:22:02.809Z,20.76
2019-03-30T13:24:36.646Z,20.33
2019-03-30T13:27:12.968Z,19.99
2019-03-30T13:29:48.422Z,20.89
2019-03-30T13:32:22.036Z,19.92
2019-03-30T13:34:56.007Z,19.92
2019-03-30T13:37:29.982Z,21.83
2019-03-30T13:40:04.142Z,21.83
2019-03-30T13:42:38.808Z,19.18
2019-03-30T13:45:19.846Z,19.40
2019-03-30T13:47:54.084Z,19.47
2019-03-30T13:50:30.830Z,21.02
2019-03-30T13:53:05.724Z,21.02
2019-03-30T13:55:40.196Z,19.85
2019-03-30T13:58:15.493Z,20.10
2019-03-30T14:00:49.629Z,19.70
2019-03-30T14:03:23.744Z,19.70
2019-03-30T14:05:56.739Z,20.44
2019-03-30T14:08:34.549Z,19.90
2019-03-30T14:11:08.113Z,19.82
2019-03-30T14:13:43.915Z,19.58
2019-03-30T14:16:18.854Z,19.48
2019-03-30T14:18:52.022Z,19.62
2019-03-30T14:21:26.059Z,20.15
2019-03-30T14:24:00.435Z,19.79
2019-03-30T14:26:35.878Z,19.82
2019-03-30T14:29:10.305Z,19.17
2019-03-30T14:31:43.997Z,18.41
2019-03-30T14:34:18.300Z,18.46
2019-03-30T14:36:54.437Z,18.21
2019-03-30T14:39:28.820Z,18.76
2019-03-30T14:42:02.458Z,19.77
2019-03-30T14:44:36.075Z,20.66
2019-03-30T14:47:10.155Z,20.31
2019-03-30T14:49:43.921Z,19.80
2019-03-30T14:52:17.529Z,18.94
2019-03-30T14:54:53.102Z,19.41
2019-03-30T14:57:26.320Z,20.27
2019-03-30T15:00:00.100Z,20.62
2019-03-30T15:02:34.883Z,19.91
2019-03-30T15:05:08.404Z,19.41
2019-03-30T15:07:42.610Z,19.40
2019-03-30T15:10:16.662Z,19.40
2019-03-30T15:12:49.897Z,19.31
2019-03-30T15:15:23.948Z,18.82
2019-03-30T15:18:00.278Z,18.94
2019-03-30T15:20:35.970Z,18.83
2019-03-30T15:23:10.362Z,18.45
2019-03-30T15:25:45.237Z,18.32
2019-03-30T15:28:19.602Z,18.15
2019-03-30T15:30:55.417Z,18.14
2019-03-30T15:33:29.963Z,18.08
2019-03-30T15:36:05.264Z,17.78
2019-03-30T15:38:38.876Z,18.11
2019-03-30T15:41:16.629Z,18.33
2019-03-30T15:43:52.633Z,18.52
2019-03-30T15:46:26.900Z,18.37
2019-03-30T15:49:03.777Z,18.36
2019-03-30T15:51:37.735Z,18.09
2019-03-30T15:54:13.475Z,17.68
2019-03-30T15:56:48.878Z,17.46
2019-03-30T15:59:23.877Z,17.12
2019-03-30T16:01:57.881Z,17.18
2019-03-30T16:04:32.634Z,17.16
2019-03-30T16:07:08.679Z,17.41
2019-03-30T16:09:42.667Z,17.14
2019-03-30T16:12:17.263Z,17.30
2019-03-30T16:14:52.033Z,17.10
2019-03-30T16:17:25.867Z,17.30
2019-03-30T16:20:00.182Z,17.52
2019-03-30T16:22:34.442Z,17.56
2019-03-30T16:25:08.663Z,17.58
2019-03-30T16:27:42.107Z,17.51
2019-03-30T16:30:17.506Z,17.37
2019-03-30T16:32:51.636Z,17.26
2019-03-30T16:35:25.127Z,17.25
2019-03-30T16:38:00.288Z,17.10
2019-03-30T16:40:33.803Z,16.98
2019-03-30T16:43:08.557Z,16.85
2019-03-30T16:45:42.694Z,16.85
2019-03-30T16:48:16.520Z,16.73
2019-03-30T16:50:50.191Z,16.68
2019-03-30T16:53:23.801Z,16.61
2019-03-30T16:55:57.276Z,16.47
2019-03-30T16:58:31.421Z,16.42
2019-03-30T17:01:05.442Z,16.25
2019-03-30T17:03:38.683Z,16.14
2019-03-30T17:06:12.725Z,16.11
2019-03-30T17:08:46.776Z,15.99
2019-03-30T17:11:20.661Z,15.89
2019-03-30T17:13:54.101Z,15.74
2019-03-30T17:16:28.709Z,15.57
2019-03-30T17:19:02.606Z,15.46
2019-03-30T17:21:35.868Z,15.24
2019-03-30T17:24:09.437Z,15.20
2019-03-30T17:26:43.030Z,15.10
2019-03-30T17:29:16.834Z,15.00
2019-03-30T17:31:50.753Z,14.88
2019-03-30T17:34:24.513Z,14.84
2019-03-30T17:36:58.381Z,14.72
2019-03-30T17:39:31.744Z,14.65
2019-03-30T17:42:05.460Z,14.51
2019-03-30T17:44:40.514Z,14.39
2019-03-30T17:47:13.771Z,14.32
2019-03-30T17:49:48.454Z,14.31
2019-03-30T17:52:22.030Z,14.14
2019-03-30T17:54:56.363Z,14.05
2019-03-30T17:57:29.960Z,14.02
2019-03-30T18:00:03.746Z,13.96
2019-03-30T18:02:38.024Z,13.87
2019-03-30T18:05:12.134Z,13.86
2019-03-30T18:07:46.636Z,13.84
2019-03-30T18:10:21.174Z,13.67
2019-03-30T18:12:55.976Z,13.64
2019-03-30T18:15:29.681Z,13.62
2019-03-30T18:18:04.207Z,13.46
2019-03-30T18:20:37.578Z,13.44
2019-03-30T18:23:11.331Z,13.39
2019-03-30T18:25:44.697Z,13.40
2019-03-30T18:28:27.107Z,13.33
2019-03-30T18:30:54.726Z,13.24
2019-03-30T18:33:29.201Z,13.07
2019-03-30T18:36:03.506Z,13.13
2019-03-30T18:38:39.589Z,13.13
2019-03-30T18:41:13.513Z,13.11
2019-03-30T18:43:47.477Z,13.01
2019-03-30T18:46:20.373Z,12.96
2019-03-30T18:48:54.580Z,12.88
2019-03-30T18:51:29.098Z,12.84
2019-03-30T18:54:04.090Z,12.84
2019-03-30T18:56:38.525Z,12.68
2019-03-30T18:59:12.423Z,12.61
2019-03-30T19:01:46.145Z,12.55
2019-03-30T19:04:20.676Z,12.52
2019-03-30T19:06:54.855Z,12.44
2019-03-30T19:09:28.911Z,12.38
2019-03-30T19:12:03.684Z,12.37
2019-03-30T19:14:37.365Z,12.37
2019-03-30T19:17:11.460Z,12.35
2019-03-30T19:19:45.556Z,12.34
2019-03-30T19:22:19.794Z,12.27
2019-03-30T19:24:53.885Z,12.18
2019-03-30T19:27:27.681Z,12.12
2019-03-30T19:30:01.753Z,12.00
2019-03-30T19:32:36.347Z,11.88
2019-03-30T19:35:10.414Z,11.88
2019-03-30T19:37:44.498Z,11.92
2019-03-30T19:40:18.550Z,11.95
2019-03-30T19:42:52.280Z,11.93
2019-03-30T19:45:26.119Z,11.73
2019-03-30T19:48:00.167Z,11.63
2019-03-30T19:50:34.540Z,11.79
2019-03-30T19:53:08.952Z,11.88
2019-03-30T19:55:43.508Z,11.91
2019-03-30T19:58:17.220Z,11.95
2019-03-30T20:00:51.514Z,12.03
2019-03-30T20:03:25.903Z,12.07
2019-03-30T20:05:59.942Z,11.99
2019-03-30T20:08:33.742Z,11.83
2019-03-30T20:11:08.286Z,11.70
2019-03-30T20:13:42.344Z,11.64
2019-03-30T20:16:16.378Z,11.43
2019-03-30T20:18:50.193Z,11.50
2019-03-30T20:21:23.044Z,11.79
2019-03-30T20:23:56.240Z,11.75
2019-03-30T20:26:29.820Z,11.77
2019-03-30T20:29:03.675Z,11.74
2019-03-30T20:31:37.781Z,11.69
2019-03-30T20:34:12.799Z,11.55
2019-03-30T20:36:46.736Z,11.29
2019-03-30T20:39:20.082Z,11.23
2019-03-30T20:41:53.880Z,11.02
2019-03-30T20:44:27.596Z,11.17
2019-03-30T20:47:01.041Z,11.05
2019-03-30T20:49:34.797Z,10.85
2019-03-30T20:52:08.848Z,11.16
2019-03-30T20:54:42.922Z,11.13
2019-03-30T20:57:17.443Z,11.15
2019-03-30T20:59:50.992Z,11.22
2019-03-30T21:02:24.946Z,11.15
2019-03-30T21:04:58.657Z,11.27
2019-03-30T21:07:32.019Z,11.05
2019-03-30T21:10:07.194Z,11.19
2019-03-30T21:12:41.712Z,11.12
2019-03-30T21:15:15.462Z,10.92
2019-03-30T21:17:49.145Z,10.81
2019-03-30T21:20:23.574Z,10.83
2019-03-30T21:22:57.595Z,11.04
2019-03-30T21:25:31.945Z,11.13
2019-03-30T21:28:06.001Z,11.05
2019-03-30T21:30:40.005Z,10.99
2019-03-30T21:33:14.032Z,10.92
2019-03-30T21:35:48.238Z,11.05
2019-03-30T21:38:23.126Z,11.03
2019-03-30T21:40:57.036Z,10.90
2019-03-30T21:43:31.154Z,10.80
2019-03-30T21:46:05.704Z,10.70
2019-03-30T21:48:40.160Z,10.69
2019-03-30T21:51:14.293Z,10.67
2019-03-30T21:53:48.494Z,10.63
2019-03-30T21:56:22.193Z,10.57
2019-03-30T21:58:56.365Z,10.53
2019-03-30T22:01:30.463Z,10.53
2019-03-30T22:04:04.733Z,10.73
2019-03-30T22:06:38.189Z,10.75
2019-03-30T22:09:12.501Z,10.58
2019-03-30T22:11:46.055Z,10.52
2019-03-30T22:14:20.410Z,10.46
2019-03-30T22:16:54.877Z,10.38
2019-03-30T22:19:28.270Z,10.28
2019-03-30T22:22:02.699Z,10.40
2019-03-30T22:24:36.314Z,10.34
2019-03-30T22:27:10.059Z,10.23
2019-03-30T22:29:43.190Z,10.19
2019-03-30T22:32:17.097Z,10.03
2019-03-30T22:34:50.632Z,9.89
2019-03-30T22:37:24.248Z,9.75
2019-03-30T22:39:57.760Z,9.63
2019-03-30T22:42:31.955Z,9.72
2019-03-30T22:45:07.253Z,9.57
2019-03-30T22:47:41.775Z,9.38
2019-03-30T22:50:16.442Z,9.25
2019-03-30T22:52:50.328Z,9.18
2019-03-30T22:55:24.376Z,9.06
2019-03-30T22:57:58.963Z,9.00
2019-03-30T23:00:50.556Z,8.93
2019-03-30T23:03:25.197Z,9.01
2019-03-30T23:05:59.530Z,9.00
2019-03-30T23:08:33.460Z,9.01
2019-03-30T23:11:07.355Z,9.12
2019-03-30T23:13:41.395Z,9.13
2019-03-30T23:16:14.873Z,9.10
2019-03-30T23:18:48.388Z,9.19
2019-03-30T23:21:21.646Z,9.16
2019-03-30T23:23:55.212Z,9.16
2019-03-30T23:26:28.596Z,9.18
2019-03-30T23:29:03.584Z,9.14
2019-03-30T23:31:38.263Z,9.16
2019-03-30T23:34:11.957Z,9.09
2019-03-30T23:36:45.939Z,9.18
2019-03-30T23:39:19.208Z,9.12
2019-03-30T23:41:52.889Z,8.96
2019-03-30T23:44:26.749Z,8.89
2019-03-30T23:47:00.863Z,8.76
2019-03-30T23:49:34.799Z,8.72
2019-03-30T23:52:08.385Z,8.61
2019-03-30T23:54:42.184Z,8.53
2019-03-30T23:57:16.090Z,8.54
2019-03-30T23:59:50.147Z,8.51
